Terminal Aerodrome Forecast
Issued by NWS

Home | Current Version | Previous Version | Text Only | Print | Product List | Glossary On
Versions: 1 2 3 4 5 6 7 8 9 10 11 12 13 14 15 16 17 18 19 20 21 22 23 24 25 26 27 28 29 30 31 32 33 34 35 36 37 38 39 40 41 42 43 44 45 46 47 48 49 50
000
FTUS44 KHGX 240917 AAG
TAFLBX
TAF AMD
KLBX 240917Z 2409/2506 VRB05G15KT 6SM -TSRA BKN025CB
     FM240925 17005KT P6SM VCTS BKN025CB
     FM241000 17003KT P6SM BKN020
     FM241500 17006KT P6SM VCSH BKN025
     FM241800 17008KT P6SM VCTS BKN035CB
     FM250000 15008KT P6SM BKN040 BKN100
     FM250300 09005KT P6SM BKN250=

USA.gov is the U.S. government's official web portal to all federal, state and local government web resources and services.